createdAt,value
2018-12-06T00:37:56.615Z,1000.02
2018-12-06T00:38:49.869Z,1000.02
2018-12-06T00:39:49.929Z,999.99
2018-12-06T00:40:49.173Z,999.99
2018-12-06T00:41:49.768Z,999.94
2018-12-06T00:42:49.661Z,999.95
2018-12-06T00:43:49.620Z,999.94
2018-12-06T00:44:49.703Z,999.91
2018-12-06T00:45:47.874Z,999.92
2018-12-06T00:46:49.604Z,999.91
2018-12-06T00:47:49.642Z,999.86
2018-12-06T00:48:49.763Z,999.89
2018-12-06T00:49:49.700Z,999.80
2018-12-06T00:50:49.617Z,999.87
2018-12-06T00:51:49.645Z,999.89
2018-12-06T00:52:49.616Z,999.88
2018-12-06T00:53:49.642Z,999.90
2018-12-06T00:54:49.623Z,999.90
2018-12-06T00:55:49.644Z,999.86
2018-12-06T00:56:49.663Z,999.87
2018-12-06T00:57:49.615Z,999.87
2018-12-06T00:58:49.646Z,999.87
2018-12-06T00:59:49.630Z,999.83
2018-12-06T01:00:49.649Z,999.81
2018-12-06T01:01:49.619Z,999.79
2018-12-06T01:02:49.612Z,999.77
2018-12-06T01:03:48.617Z,999.80
2018-12-06T01:04:49.141Z,999.82
2018-12-06T01:05:56.800Z,999.79
2018-12-06T01:06:49.362Z,999.82
2018-12-06T01:07:55.287Z,999.84
2018-12-06T01:08:55.258Z,999.82
2018-12-06T01:09:55.276Z,999.74
2018-12-06T01:10:56.965Z,999.78
2018-12-06T01:11:49.432Z,999.87
2018-12-06T01:12:55.218Z,999.83
2018-12-06T01:13:55.199Z,999.78
2018-12-06T01:14:55.220Z,999.76
2018-12-06T01:16:57.893Z,999.81
2018-12-06T01:19:07.117Z,999.83
2018-12-06T01:21:16.371Z,999.77
2018-12-06T01:22:18.034Z,999.83
2018-12-06T01:23:17.948Z,999.84
2018-12-06T01:24:23.906Z,999.83
2018-12-06T01:25:23.841Z,999.82
2018-12-06T01:26:18.108Z,999.77
2018-12-06T01:27:18.096Z,999.85
2018-12-06T01:28:23.892Z,999.87
2018-12-06T01:29:18.172Z,999.87
2018-12-06T01:30:23.816Z,999.80
2018-12-06T01:31:18.202Z,999.74
2018-12-06T01:32:16.136Z,999.75
2018-12-06T01:33:23.755Z,999.74
2018-12-06T01:34:23.739Z,999.75
2018-12-06T01:35:23.761Z,999.80
2018-12-06T01:36:17.811Z,999.72
2018-12-06T01:37:23.738Z,999.67
2018-12-06T01:38:23.700Z,999.69
2018-12-06T01:39:23.687Z,999.70
2018-12-06T01:40:23.743Z,999.67
2018-12-06T01:41:17.926Z,999.61
2018-12-06T01:43:32.359Z,999.63
2018-12-06T01:45:41.575Z,999.61
2018-12-06T01:47:50.782Z,999.59
2018-12-06T01:50:00.031Z,999.55
2018-12-06T01:52:09.268Z,999.47
2018-12-06T01:54:19.514Z,999.46
2018-12-06T01:55:19.427Z,999.47
2018-12-06T02:09:31.442Z,999.42
2018-12-06T02:10:32.093Z,999.42
2018-12-06T02:11:31.941Z,999.38
2018-12-06T02:12:30.140Z,999.34
2018-12-06T02:13:31.812Z,999.32
2018-12-06T02:14:31.957Z,999.30
2018-12-06T02:15:32.144Z,999.28
2018-12-06T02:16:31.730Z,999.33
2018-12-06T02:17:31.815Z,999.28
2018-12-06T02:18:30.222Z,999.31
2018-12-06T02:19:32.748Z,999.26
2018-12-06T02:20:31.570Z,999.32
2018-12-06T02:21:31.874Z,999.33
2018-12-06T02:22:32.893Z,999.31
2018-12-06T02:23:32.954Z,999.30
2018-12-06T02:24:31.943Z,999.35
2018-12-06T02:25:31.898Z,999.37
2018-12-06T02:26:31.836Z,999.36
2018-12-06T02:27:31.835Z,999.40
2018-12-06T02:28:31.757Z,999.36
2018-12-06T02:29:31.693Z,999.35
2018-12-06T02:30:31.807Z,999.29
2018-12-06T02:31:31.338Z,999.28
2018-12-06T02:32:38.625Z,999.32
2018-12-06T02:35:37.786Z,999.29
2018-12-06T02:36:38.995Z,999.29
2018-12-06T02:37:38.948Z,999.32
2018-12-06T02:38:39.953Z,999.33
2018-12-06T02:39:38.922Z,999.32
2018-12-06T02:40:39.098Z,999.34
2018-12-06T02:41:37.227Z,999.27
2018-12-06T02:42:38.885Z,999.34
2018-12-06T02:43:38.866Z,999.35
2018-12-06T02:44:39.980Z,999.32
2018-12-06T02:45:38.843Z,999.32
2018-12-06T02:46:38.871Z,999.28
2018-12-06T02:47:38.867Z,999.24
2018-12-06T02:48:38.841Z,999.30
2018-12-06T02:49:39.902Z,999.26
2018-12-06T02:50:38.852Z,999.29
2018-12-06T02:51:38.839Z,999.35
2018-12-06T02:52:38.846Z,999.34
2018-12-06T02:53:39.895Z,999.34
2018-12-06T02:54:38.919Z,999.33
2018-12-06T02:55:39.936Z,999.26
2018-12-06T02:56:39.011Z,999.23
2018-12-06T02:57:39.887Z,999.22
2018-12-06T02:58:38.887Z,999.23
2018-12-06T02:59:38.924Z,999.15
2018-12-06T03:00:39.031Z,999.15
2018-12-06T03:01:38.884Z,999.11
2018-12-06T03:02:38.864Z,999.05
2018-12-06T03:03:38.985Z,999.06
2018-12-06T03:04:37.366Z,999.09
2018-12-06T03:05:39.067Z,999.08
2018-12-06T03:06:37.142Z,999.04
2018-12-06T03:07:38.169Z,999.06
2018-12-06T03:08:38.932Z,999.07
2018-12-06T03:09:38.891Z,999.10
2018-12-06T03:10:38.127Z,999.07
2018-12-06T03:11:38.065Z,999.11
2018-12-06T03:12:39.061Z,999.13
2018-12-06T03:13:38.633Z,999.11
2018-12-06T03:14:39.185Z,999.11
2018-12-06T03:15:38.874Z,999.14
2018-12-06T03:16:38.487Z,999.17
2018-12-06T03:17:38.430Z,999.20
2018-12-06T03:18:39.605Z,999.19
2018-12-06T03:19:38.509Z,999.18
2018-12-06T03:20:38.666Z,999.22
2018-12-06T03:21:38.486Z,999.18
2018-12-06T03:22:38.343Z,999.23
2018-12-06T03:23:38.458Z,999.28
2018-12-06T03:24:38.438Z,999.30
2018-12-06T03:25:38.547Z,999.27
2018-12-06T03:26:38.399Z,999.31
2018-12-06T03:27:38.322Z,999.29
2018-12-06T03:28:38.491Z,999.35
2018-12-06T03:29:38.589Z,999.32
2018-12-06T03:30:38.542Z,999.22
2018-12-06T03:31:38.636Z,999.28
2018-12-06T03:32:38.431Z,999.29
2018-12-06T03:35:25.314Z,999.26
2018-12-06T03:36:26.722Z,999.24
2018-12-06T03:37:26.543Z,999.22
2018-12-06T03:38:26.593Z,999.19
2018-12-06T03:39:27.454Z,999.21
2018-12-06T03:40:26.403Z,999.15
2018-12-06T03:41:27.543Z,999.12
2018-12-06T03:42:26.421Z,999.20
2018-12-06T03:43:26.446Z,999.22
2018-12-06T03:44:27.376Z,999.20
2018-12-06T03:45:24.551Z,999.22
2018-12-06T03:46:26.405Z,999.25
2018-12-06T03:47:26.403Z,999.16
2018-12-06T03:48:26.431Z,999.13
2018-12-06T03:49:27.399Z,999.20
2018-12-06T03:50:27.602Z,999.14
2018-12-06T03:51:26.538Z,999.16
2018-12-06T03:52:26.462Z,999.12
2018-12-06T03:53:26.467Z,999.12
2018-12-06T03:54:26.482Z,999.12
2018-12-06T03:55:26.438Z,999.10
2018-12-06T03:56:27.450Z,999.11
2018-12-06T03:57:26.381Z,999.09
2018-12-06T03:58:26.471Z,999.09
2018-12-06T03:59:26.769Z,999.06
2018-12-06T04:00:26.681Z,999.06
2018-12-06T04:01:26.183Z,999.12
2018-12-06T04:02:26.006Z,999.13
2018-12-06T04:03:27.164Z,999.13
2018-12-06T04:04:26.246Z,999.12
2018-12-06T04:05:27.260Z,999.16
2018-12-06T04:06:24.856Z,999.08
2018-12-06T04:07:26.090Z,999.07
2018-12-06T04:08:24.602Z,999.09
2018-12-06T04:09:24.667Z,999.03
2018-12-06T04:10:26.516Z,999.06
2018-12-06T04:11:27.885Z,999.09
2018-12-06T04:12:26.011Z,999.06
2018-12-06T04:13:28.089Z,999.09
2018-12-06T04:14:24.819Z,999.15
2018-12-06T04:15:24.550Z,999.14
2018-12-06T04:16:27.501Z,999.09
2018-12-06T04:17:25.654Z,999.09
2018-12-06T04:18:25.546Z,999.05
2018-12-06T04:19:26.551Z,999.01
2018-12-06T04:20:26.410Z,999.06
2018-12-06T04:21:28.076Z,999.03
2018-12-06T04:22:26.278Z,999.07
2018-12-06T04:23:24.648Z,999.09
2018-12-06T04:24:26.391Z,999.02
2018-12-06T04:25:24.445Z,999.06
2018-12-06T04:26:25.944Z,998.99
2018-12-06T04:27:26.154Z,998.93
2018-12-06T04:28:27.112Z,998.85
2018-12-06T04:29:26.007Z,998.83
2018-12-06T04:30:25.914Z,998.81
2018-12-06T04:31:26.029Z,998.80
2018-12-06T04:32:26.099Z,998.86
2018-12-06T04:33:26.113Z,998.85
2018-12-06T04:34:26.104Z,998.82
2018-12-06T04:35:26.001Z,998.87
2018-12-06T04:36:24.530Z,998.88
2018-12-06T04:37:48.103Z,998.78
2018-12-06T04:38:25.012Z,998.86
2018-12-06T04:39:26.023Z,998.89
2018-12-06T04:40:26.260Z,998.93
2018-12-06T04:41:26.037Z,998.90
2018-12-06T04:42:26.105Z,998.88
2018-12-06T04:43:26.040Z,998.86
2018-12-06T04:44:25.995Z,998.92
2018-12-06T04:45:25.973Z,998.85
2018-12-06T04:46:26.088Z,998.95
2018-12-06T04:47:26.008Z,998.88
2018-12-06T04:48:24.961Z,998.85
2018-12-06T04:49:25.129Z,999.04
2018-12-06T04:50:24.975Z,999.04
2018-12-06T04:51:25.895Z,999.03
2018-12-06T04:52:25.472Z,999.06
2018-12-06T04:53:26.537Z,999.00
2018-12-06T04:54:25.520Z,999.06
2018-12-06T04:55:25.693Z,999.14
2018-12-06T04:56:26.649Z,999.09
2018-12-06T04:57:25.877Z,999.13
2018-12-06T04:58:25.420Z,999.06
2018-12-06T04:59:25.576Z,999.08
2018-12-06T05:00:26.562Z,999.04
2018-12-06T05:01:26.514Z,999.09
2018-12-06T05:02:25.445Z,999.16
2018-12-06T05:03:25.445Z,999.20
2018-12-06T05:04:25.435Z,999.28
2018-12-06T05:05:25.522Z,999.21
2018-12-06T05:06:23.749Z,999.28
2018-12-06T05:07:25.386Z,999.31
2018-12-06T05:08:25.516Z,999.28
2018-12-06T05:09:25.425Z,999.27
2018-12-06T05:10:26.445Z,999.33
2018-12-06T05:11:25.574Z,999.21
2018-12-06T05:12:25.664Z,999.28
2018-12-06T05:13:26.581Z,999.24
2018-12-06T05:14:26.086Z,999.26
2018-12-06T05:15:37.488Z,999.25
2018-12-06T06:08:04.291Z,999.63
2018-12-06T06:10:13.414Z,999.64
2018-12-06T06:11:15.038Z,999.53
2018-12-06T06:12:15.063Z,999.55
2018-12-06T06:13:22.129Z,999.49
2018-12-06T06:14:15.200Z,999.48
2018-12-06T06:15:20.891Z,999.52
2018-12-06T06:16:15.200Z,999.44
2018-12-06T06:17:20.919Z,999.41
2018-12-06T06:18:15.210Z,999.36
2018-12-06T06:19:20.814Z,999.36
2018-12-06T06:20:20.853Z,999.24
2018-12-06T06:21:20.838Z,999.26
2018-12-06T06:22:21.669Z,999.26
2018-12-06T06:23:21.928Z,999.26
2018-12-06T06:24:20.805Z,999.28
2018-12-06T06:25:20.772Z,999.25
2018-12-06T06:26:14.952Z,999.22
2018-12-06T06:27:20.778Z,999.21
2018-12-06T06:28:22.068Z,999.20
2018-12-06T06:29:20.815Z,999.24
2018-12-06T06:30:20.733Z,999.28
2018-12-06T06:31:15.155Z,999.31
2018-12-06T06:32:20.741Z,999.33
2018-12-06T06:33:22.244Z,999.34
2018-12-06T06:35:23.426Z,999.43
2018-12-06T06:37:32.623Z,999.55
2018-12-06T06:39:41.842Z,999.62
2018-12-06T06:40:43.523Z,999.64
2018-12-06T06:41:49.350Z,999.63
2018-12-06T06:42:50.665Z,999.74
2018-12-06T06:43:43.643Z,999.75
2018-12-06T06:44:49.339Z,999.71
2018-12-06T06:45:43.662Z,999.76
2018-12-06T06:47:51.968Z,999.80
2018-12-06T06:50:01.241Z,999.84
2018-12-06T06:52:10.485Z,999.88
2018-12-06T06:54:20.756Z,999.91
2018-12-06T06:56:29.951Z,999.96
2018-12-06T06:58:39.250Z,999.97
2018-12-06T07:00:48.380Z,1000.07
2018-12-06T07:02:57.638Z,1000.13
2018-12-06T07:04:05.443Z,1000.18
2018-12-06T07:04:59.299Z,1000.14
2018-12-06T07:05:59.261Z,1000.03
2018-12-06T07:06:59.425Z,1000.08
2018-12-06T07:07:59.209Z,1000.13
2018-12-06T07:08:59.219Z,1000.20
2018-12-06T07:09:59.229Z,1000.26
2018-12-06T07:10:59.202Z,1000.31
2018-12-06T07:11:59.243Z,1000.29
2018-12-06T07:12:59.236Z,1000.26
2018-12-06T07:14:05.144Z,1000.33
2018-12-06T07:14:59.289Z,1000.31
2018-12-06T07:15:58.476Z,1000.29
2018-12-06T07:18:36.051Z,1000.42
2018-12-06T07:19:37.359Z,1000.34
2018-12-06T07:20:37.693Z,1000.34
2018-12-06T07:21:43.482Z,1000.30
2018-12-06T07:22:37.348Z,1000.28
2018-12-06T07:23:38.350Z,1000.26
2018-12-06T07:24:43.352Z,1000.24
2018-12-06T07:25:46.529Z,1000.24
2018-12-06T07:26:43.464Z,1000.15
2018-12-06T07:27:44.570Z,1000.23
2018-12-06T07:28:43.298Z,1000.25
2018-12-06T07:29:37.503Z,1000.25
2018-12-06T07:30:43.294Z,1000.26
2018-12-06T07:31:43.323Z,1000.28
2018-12-06T07:32:37.621Z,1000.38
2018-12-06T07:33:43.236Z,1000.42
2018-12-06T07:34:43.345Z,1000.43
2018-12-06T07:35:44.402Z,1000.36
2018-12-06T07:36:37.288Z,1000.51
2018-12-06T07:37:35.574Z,1000.56
2018-12-06T07:38:37.194Z,1000.49
2018-12-06T07:39:43.079Z,1000.58
2018-12-06T07:40:37.285Z,1000.56
2018-12-06T07:41:43.041Z,1000.57
2018-12-06T07:42:37.316Z,1000.61
2018-12-06T07:43:43.030Z,1000.55
2018-12-06T07:44:37.333Z,1000.52
2018-12-06T07:45:43.018Z,1000.48
2018-12-06T07:46:37.525Z,1000.43
2018-12-06T07:47:37.411Z,1000.42
2018-12-06T07:48:37.407Z,1000.43
2018-12-06T07:49:37.420Z,1000.46
2018-12-06T07:50:37.369Z,1000.43
2018-12-06T07:51:37.390Z,1000.45
2018-12-06T07:52:37.383Z,1000.51
2018-12-06T07:53:36.361Z,1000.55
2018-12-06T07:54:35.382Z,1000.51
2018-12-06T07:55:36.849Z,1000.61
2018-12-06T07:56:36.848Z,1000.56
2018-12-06T07:57:36.867Z,1000.62
2018-12-06T07:58:36.865Z,1000.61
2018-12-06T07:59:36.873Z,1000.59
2018-12-06T08:00:36.950Z,1000.62
2018-12-06T08:01:36.874Z,1000.62
2018-12-06T08:02:36.889Z,1000.57
2018-12-06T08:03:36.896Z,1000.55
2018-12-06T08:04:36.868Z,1000.54
2018-12-06T08:05:35.247Z,1000.51
2018-12-06T08:06:36.895Z,1000.51
2018-12-06T08:07:36.966Z,1000.53
2018-12-06T08:08:36.882Z,1000.51
2018-12-06T08:09:36.942Z,1000.62
2018-12-06T08:10:36.891Z,1000.58
2018-12-06T08:11:38.617Z,1000.54
2018-12-06T08:12:36.921Z,1000.60
2018-12-06T08:13:36.856Z,1000.55
2018-12-06T08:14:36.867Z,1000.55
2018-12-06T08:15:36.907Z,1000.60
2018-12-06T08:16:35.140Z,1000.58
2018-12-06T08:17:36.972Z,1000.67
2018-12-06T08:18:36.848Z,1000.58
2018-12-06T08:19:36.883Z,1000.55
2018-12-06T08:20:36.866Z,1000.53
2018-12-06T08:21:36.952Z,1000.54
2018-12-06T08:22:36.936Z,1000.60
2018-12-06T08:23:36.906Z,1000.60
2018-12-06T08:24:36.856Z,1000.63
2018-12-06T08:25:36.894Z,1000.64
2018-12-06T08:26:36.865Z,1000.65
2018-12-06T08:27:35.048Z,1000.58
2018-12-06T08:28:36.862Z,1000.57
2018-12-06T08:29:36.892Z,1000.58
2018-12-06T08:30:36.847Z,1000.58
2018-12-06T08:31:36.846Z,1000.53
2018-12-06T08:32:36.864Z,1000.52
2018-12-06T08:33:36.865Z,1000.53
2018-12-06T08:34:36.867Z,1000.53
2018-12-06T08:35:36.846Z,1000.55
2018-12-06T08:36:36.862Z,1000.53
2018-12-06T08:37:36.867Z,1000.55
2018-12-06T08:38:34.897Z,1000.51
2018-12-06T08:39:36.858Z,1000.58
2018-12-06T08:40:36.876Z,1000.53
2018-12-06T08:41:35.869Z,1000.46
2018-12-06T08:42:36.366Z,1000.55
2018-12-06T08:43:36.363Z,1000.52
2018-12-06T08:44:36.345Z,1000.56
2018-12-06T08:45:36.349Z,1000.48
2018-12-06T08:46:36.385Z,1000.48
2018-12-06T08:47:36.369Z,1000.50
2018-12-06T08:48:36.358Z,1000.56
2018-12-06T08:49:34.777Z,1000.53
2018-12-06T08:50:36.347Z,1000.52
2018-12-06T08:51:36.377Z,1000.54
2018-12-06T08:52:36.364Z,1000.48
2018-12-06T08:53:36.365Z,1000.46
2018-12-06T08:54:36.348Z,1000.48
2018-12-06T08:55:36.374Z,1000.57
2018-12-06T08:56:36.359Z,1000.57
2018-12-06T08:57:36.387Z,1000.58
2018-12-06T08:58:36.370Z,1000.58
2018-12-06T08:59:36.346Z,1000.56
2018-12-06T09:00:34.665Z,1000.57
2018-12-06T09:01:36.359Z,1000.59
2018-12-06T09:02:36.362Z,1000.55
2018-12-06T09:03:36.386Z,1000.53
2018-12-06T09:04:37.624Z,1000.57
2018-12-06T09:05:36.345Z,1000.56
2018-12-06T09:06:36.344Z,1000.52
2018-12-06T09:07:36.363Z,1000.48
2018-12-06T09:08:36.357Z,1000.54
2018-12-06T09:09:36.373Z,1000.61
2018-12-06T09:10:36.380Z,1000.67
2018-12-06T09:11:34.538Z,1000.64
2018-12-06T09:12:36.358Z,1000.72
2018-12-06T09:13:36.344Z,1000.69
2018-12-06T09:14:36.358Z,1000.67
2018-12-06T09:15:37.354Z,1000.66
2018-12-06T09:16:36.373Z,1000.64
2018-12-06T09:17:36.359Z,1000.65
2018-12-06T09:18:36.345Z,1000.61
2018-12-06T09:19:36.357Z,1000.69
2018-12-06T09:20:36.345Z,1000.63
2018-12-06T09:21:36.396Z,1000.67
2018-12-06T09:22:34.454Z,1000.62
2018-12-06T09:23:36.345Z,1000.63
2018-12-06T09:24:36.344Z,1000.64
2018-12-06T09:25:36.387Z,1000.67
2018-12-06T09:26:36.403Z,1000.60
2018-12-06T09:27:36.361Z,1000.56
2018-12-06T09:28:35.360Z,1000.65
2018-12-06T09:29:35.847Z,1000.65
2018-12-06T09:30:35.851Z,1000.67
2018-12-06T09:31:35.868Z,1000.69
2018-12-06T09:32:35.862Z,1000.70
2018-12-06T09:33:34.305Z,1000.74
2018-12-06T09:34:35.858Z,1000.79
2018-12-06T09:35:35.860Z,1000.80
2018-12-06T09:36:35.860Z,1000.78
2018-12-06T09:37:35.884Z,1000.78
2018-12-06T09:38:35.954Z,1000.81
2018-12-06T09:39:35.860Z,1000.73
2018-12-06T09:40:35.847Z,1000.78
2018-12-06T09:41:35.857Z,1000.73
2018-12-06T09:42:35.864Z,1000.70
2018-12-06T09:43:41.871Z,1000.63
2018-12-06T09:44:34.211Z,1000.67
2018-12-06T09:45:35.897Z,1000.64
2018-12-06T09:46:35.990Z,1000.69
2018-12-06T09:47:35.932Z,1000.64
2018-12-06T09:48:42.027Z,1000.69
2018-12-06T09:49:41.837Z,1000.70
2018-12-06T09:50:41.927Z,1000.72
2018-12-06T09:51:41.830Z,1000.68
2018-12-06T09:52:43.193Z,1000.70
2018-12-06T09:53:43.718Z,1000.74
2018-12-06T09:54:37.539Z,1000.74
2018-12-06T09:55:38.859Z,1000.74
2018-12-06T09:56:38.640Z,1000.74
2018-12-06T10:00:52.599Z,1000.59
2018-12-06T10:05:25.879Z,1000.59
2018-12-06T10:12:11.293Z,1000.57
2018-12-06T10:24:04.630Z,1000.68
2018-12-06T10:25:08.153Z,1000.69
2018-12-06T10:26:12.534Z,1000.71
2018-12-06T10:28:14.523Z,1000.73
2018-12-06T10:30:23.475Z,1000.69
2018-12-06T10:31:26.371Z,1000.73
2018-12-06T10:32:31.052Z,1000.69
2018-12-06T10:33:33.339Z,1000.72
2018-12-06T10:35:44.658Z,1000.66
2018-12-06T10:37:53.889Z,1000.69
2018-12-06T10:38:55.564Z,1000.71
2018-12-06T10:39:55.486Z,1000.72
2018-12-06T10:40:55.549Z,1000.72
2018-12-06T10:42:01.441Z,1000.63
2018-12-06T10:42:55.640Z,1000.60
2018-12-06T10:43:55.544Z,1000.70
2018-12-06T10:45:01.393Z,1000.68
2018-12-06T10:45:55.631Z,1000.65
2018-12-06T10:46:55.607Z,1000.78
2018-12-06T10:48:01.370Z,1000.71
2018-12-06T10:48:55.706Z,1000.76
2018-12-06T10:51:14.944Z,1000.68
2018-12-06T10:52:14.860Z,1000.75
2018-12-06T10:53:16.608Z,1000.81
2018-12-06T10:55:31.111Z,1000.82
2018-12-06T10:57:40.314Z,1000.83
2018-12-06T10:58:41.969Z,1000.79
2018-12-06T11:00:57.357Z,1000.84
2018-12-06T11:01:58.293Z,1000.80
2018-12-06T11:04:12.939Z,1000.82
2018-12-06T11:05:14.274Z,1000.87
2018-12-06T11:06:20.304Z,1000.79
2018-12-06T11:07:14.377Z,1000.87
2018-12-06T11:08:14.357Z,1000.80
2018-12-06T11:10:28.910Z,1000.87
2018-12-06T11:11:30.666Z,1000.83
2018-12-06T11:12:30.776Z,1000.89
2018-12-06T11:13:30.516Z,1000.91
2018-12-06T11:14:36.496Z,1000.91
2018-12-06T11:16:39.071Z,1000.99
2018-12-06T11:18:48.328Z,1000.89
2018-12-06T11:20:57.489Z,1000.80
2018-12-06T11:21:59.286Z,1000.80
2018-12-06T11:24:08.867Z,1000.67
2018-12-06T11:25:10.346Z,1000.63
2018-12-06T11:26:10.401Z,1000.66
2018-12-06T11:28:19.028Z,1000.69
2018-12-06T11:29:20.636Z,1000.64
2018-12-06T11:30:20.703Z,1000.66
2018-12-06T11:31:20.608Z,1000.64
2018-12-06T11:32:20.557Z,1000.63
2018-12-06T11:33:20.538Z,1000.63
2018-12-06T11:35:35.115Z,1000.64
2018-12-06T11:36:42.607Z,1000.60
2018-12-06T11:38:55.724Z,1000.58
2018-12-06T11:41:20.834Z,1000.67
2018-12-06T11:43:55.686Z,1000.75
2018-12-06T11:44:57.310Z,1000.71
2018-12-06T11:48:26.808Z,1000.67
2018-12-06T11:49:25.444Z,1000.68
2018-12-06T11:50:22.350Z,1000.73
2018-12-06T11:51:22.491Z,1000.67
2018-12-06T11:52:22.430Z,1000.72
2018-12-06T11:54:31.746Z,1000.82
2018-12-06T11:55:39.367Z,1000.84
2018-12-06T11:56:33.264Z,1000.87
2018-12-06T11:57:39.225Z,1000.85
2018-12-06T11:58:33.377Z,1000.86
2018-12-06T11:59:40.036Z,1000.87
2018-12-06T12:00:33.349Z,1000.93
2018-12-06T12:01:33.345Z,1000.90
2018-12-06T12:02:33.293Z,1000.93
2018-12-06T12:03:33.294Z,1000.96
2018-12-06T12:04:33.298Z,1000.91
2018-12-06T12:05:33.256Z,1000.96
2018-12-06T12:06:33.262Z,1000.88
2018-12-06T12:07:31.354Z,1000.95
2018-12-06T12:08:33.368Z,1000.93
2018-12-06T12:09:33.295Z,1000.92
2018-12-06T12:10:33.270Z,1000.94
2018-12-06T12:11:33.271Z,1000.87
2018-12-06T12:12:33.290Z,1000.85
2018-12-06T12:13:31.317Z,1000.84
2018-12-06T12:14:33.254Z,1000.87
2018-12-06T12:15:32.279Z,1000.67
2018-12-06T12:16:32.749Z,1000.80
2018-12-06T12:17:32.755Z,1000.74
2018-12-06T12:18:32.773Z,1000.70
2018-12-06T12:19:32.778Z,1000.71
2018-12-06T12:20:33.822Z,1000.73
2018-12-06T12:21:32.768Z,1000.62
2018-12-06T12:22:32.898Z,1000.55
2018-12-06T12:23:32.776Z,1000.64
2018-12-06T12:24:32.787Z,1000.59
2018-12-06T12:25:33.797Z,1000.71
2018-12-06T12:26:32.925Z,1000.62
2018-12-06T12:27:32.887Z,1000.61
2018-12-06T12:28:32.771Z,1000.66
2018-12-06T12:29:33.264Z,1000.70
2018-12-06T12:30:32.754Z,1000.63
2018-12-06T12:31:32.785Z,1000.65
2018-12-06T12:32:33.775Z,1000.68
2018-12-06T12:33:32.776Z,1000.60
2018-12-06T12:34:32.764Z,1000.65
2018-12-06T12:35:32.813Z,1000.65
2018-12-06T12:36:32.766Z,1000.74
2018-12-06T12:37:32.764Z,1000.75
2018-12-06T12:38:32.774Z,1000.78
2018-12-06T12:39:32.784Z,1000.75
2018-12-06T12:40:32.774Z,1000.71
2018-12-06T12:41:32.772Z,1000.73
2018-12-06T12:42:31.003Z,1000.73
2018-12-06T12:43:32.809Z,1000.71
2018-12-06T12:44:32.817Z,1000.77
2018-12-06T12:45:32.762Z,1000.82
2018-12-06T12:46:32.769Z,1000.73
2018-12-06T12:47:32.778Z,1000.73
2018-12-06T12:48:32.804Z,1000.70
2018-12-06T12:49:32.765Z,1000.68
2018-12-06T12:50:32.760Z,1000.71
2018-12-06T12:51:32.779Z,1000.74
2018-12-06T12:52:32.764Z,1000.69
2018-12-06T12:53:32.783Z,1000.74
2018-12-06T12:54:32.769Z,1000.84
2018-12-06T12:55:32.858Z,1000.78
2018-12-06T12:56:32.771Z,1000.90
2018-12-06T12:57:32.774Z,1000.95
2018-12-06T12:58:32.763Z,1000.91
2018-12-06T12:59:32.772Z,1000.94
2018-12-06T13:00:32.775Z,1000.94
2018-12-06T13:01:32.798Z,1000.91
2018-12-06T13:02:32.763Z,1001.01
2018-12-06T13:03:32.289Z,1000.88
2018-12-06T13:04:32.278Z,1000.92
2018-12-06T13:05:31.126Z,1000.88
2018-12-06T13:06:32.272Z,1000.88
2018-12-06T13:07:32.284Z,1000.89
2018-12-06T13:08:32.274Z,1000.92
2018-12-06T13:09:32.279Z,1000.84
2018-12-06T13:10:32.269Z,1000.84
2018-12-06T13:11:32.288Z,1000.85
2018-12-06T13:12:32.273Z,1000.78
2018-12-06T13:13:32.246Z,1000.67
2018-12-06T13:14:32.284Z,1000.70
2018-12-06T13:15:32.267Z,1000.68
2018-12-06T13:16:32.287Z,1000.72
2018-12-06T13:17:32.286Z,1000.77
2018-12-06T13:18:32.264Z,1000.69
2018-12-06T13:19:32.247Z,1000.68
2018-12-06T13:20:32.293Z,1000.71
2018-12-06T13:21:32.563Z,1000.71
2018-12-06T13:22:32.268Z,1000.72
2018-12-06T13:23:32.437Z,1000.72
2018-12-06T13:24:32.275Z,1000.69
2018-12-06T13:25:32.250Z,1000.75
2018-12-06T13:26:32.292Z,1000.74
2018-12-06T13:27:32.477Z,1000.74
2018-12-06T13:28:32.335Z,1000.77
2018-12-06T13:29:32.268Z,1000.77
2018-12-06T13:30:33.276Z,1000.71
2018-12-06T13:31:32.291Z,1000.70
2018-12-06T13:32:32.293Z,1000.74
2018-12-06T13:33:32.277Z,1000.70
2018-12-06T13:34:32.263Z,1000.73
2018-12-06T13:35:33.357Z,1000.64
2018-12-06T13:36:32.345Z,1000.65
2018-12-06T13:37:32.304Z,1000.66
2018-12-06T13:38:32.317Z,1000.65
2018-12-06T13:39:30.455Z,1000.63
2018-12-06T13:40:32.364Z,1000.69
2018-12-06T13:41:32.294Z,1000.75
2018-12-06T13:42:32.281Z,1000.67
2018-12-06T13:43:32.260Z,1000.75
2018-12-06T13:44:32.304Z,1000.76
2018-12-06T13:45:32.277Z,1000.83
2018-12-06T13:46:32.324Z,1000.86
2018-12-06T13:47:32.298Z,1000.70
2018-12-06T13:48:32.260Z,1000.71
2018-12-06T13:49:32.282Z,1000.69
2018-12-06T13:50:32.140Z,1000.68
2018-12-06T13:51:31.774Z,1000.66
2018-12-06T13:52:31.796Z,1000.73
2018-12-06T13:53:31.754Z,1000.74
2018-12-06T13:54:32.772Z,1000.77
2018-12-06T13:55:31.858Z,1000.75
2018-12-06T13:56:31.775Z,1000.74
2018-12-06T13:57:32.800Z,1000.74
2018-12-06T13:58:31.759Z,1000.77
2018-12-06T13:59:31.870Z,1000.78
2018-12-06T14:00:31.864Z,1000.79
2018-12-06T14:01:31.788Z,1000.71
2018-12-06T14:02:31.777Z,1000.71
2018-12-06T14:03:31.808Z,1000.78
2018-12-06T14:04:31.777Z,1000.78
2018-12-06T14:05:31.769Z,1000.77
2018-12-06T14:06:31.761Z,1000.76
2018-12-06T14:07:31.772Z,1000.73
2018-12-06T14:08:31.790Z,1000.69
2018-12-06T14:09:31.777Z,1000.70
2018-12-06T14:10:31.785Z,1000.73
2018-12-06T14:11:31.768Z,1000.68
2018-12-06T14:12:31.814Z,1000.75
2018-12-06T14:13:31.800Z,1000.71
2018-12-06T14:14:31.796Z,1000.75
2018-12-06T14:15:31.803Z,1000.71
2018-12-06T14:16:31.871Z,1000.72
2018-12-06T14:17:31.768Z,1000.76
2018-12-06T14:18:31.779Z,1000.75
2018-12-06T14:19:31.806Z,1000.81
2018-12-06T14:20:31.903Z,1000.73
2018-12-06T14:21:31.873Z,1000.73
2018-12-06T14:22:31.766Z,1000.77
2018-12-06T14:23:31.986Z,1000.72
2018-12-06T14:24:31.793Z,1000.71
2018-12-06T14:25:29.960Z,1000.76
2018-12-06T14:26:32.518Z,1000.77
2018-12-06T14:27:31.753Z,1000.76
2018-12-06T14:28:31.777Z,1000.73
2018-12-06T14:29:31.864Z,1000.72
2018-12-06T14:30:31.812Z,1000.72
2018-12-06T14:31:31.783Z,1000.73
2018-12-06T14:32:31.788Z,1000.78
2018-12-06T14:33:31.859Z,1000.81
2018-12-06T14:34:31.781Z,1000.81
2018-12-06T14:35:31.766Z,1000.83
2018-12-06T14:36:31.846Z,1000.84
2018-12-06T14:37:31.059Z,1000.79
2018-12-06T14:38:31.288Z,1000.76
2018-12-06T14:39:37.333Z,1000.74
2018-12-06T14:40:31.484Z,1000.81
2018-12-06T14:41:31.290Z,1000.86
2018-12-06T14:42:31.302Z,1000.82
2018-12-06T14:43:31.299Z,1000.87
2018-12-06T14:44:31.321Z,1000.80
2018-12-06T14:45:32.587Z,1000.86
2018-12-06T14:46:37.365Z,1000.81
2018-12-06T14:47:31.336Z,1000.84
2018-12-06T14:48:31.346Z,1000.75
2018-12-06T14:49:31.342Z,1000.79
2018-12-06T14:50:31.348Z,1000.80
2018-12-06T14:51:31.352Z,1000.84
2018-12-06T14:52:32.404Z,1000.86
2018-12-06T14:53:31.336Z,1000.79
2018-12-06T14:54:29.583Z,1000.94
2018-12-06T14:55:31.359Z,1000.87
2018-12-06T14:56:31.374Z,1000.91
2018-12-06T14:57:31.346Z,1000.77
2018-12-06T14:58:31.378Z,1000.89
2018-12-06T14:59:31.367Z,1000.86
2018-12-06T15:00:31.370Z,1000.79
2018-12-06T15:01:31.355Z,1000.81
2018-12-06T15:02:31.394Z,1000.77
2018-12-06T15:03:31.387Z,1000.78
2018-12-06T15:04:31.380Z,1000.81
2018-12-06T15:05:39.870Z,1000.83
2018-12-06T15:06:37.720Z,1000.86
2018-12-06T15:07:31.601Z,1000.86
2018-12-06T15:08:31.510Z,1000.82
2018-12-06T15:09:31.465Z,1000.88
2018-12-06T15:10:31.573Z,1000.91
2018-12-06T15:11:30.992Z,1000.87
2018-12-06T15:12:31.982Z,1000.94
2018-12-06T15:13:30.966Z,1000.98
2018-12-06T15:14:30.952Z,1000.95
2018-12-06T15:15:30.952Z,1000.94
2018-12-06T15:16:30.958Z,1000.90
2018-12-06T15:17:30.981Z,1000.90